createdAt,value
2018-07-26T00:00:23.684Z,23.56
2018-07-26T00:02:52.092Z,23.55
2018-07-26T00:05:20.531Z,23.54
2018-07-26T00:07:48.953Z,23.49
2018-07-26T00:10:17.409Z,23.47
2018-07-26T00:12:46.465Z,23.42
2018-07-26T00:15:14.900Z,23.28
2018-07-26T00:17:43.352Z,23.20
2018-07-26T00:20:11.809Z,23.17
2018-07-26T00:22:40.210Z,23.12
2018-07-26T00:25:08.599Z,23.05
2018-07-26T00:27:37.073Z,23.04
2018-07-26T00:30:06.044Z,23.10
2018-07-26T00:32:34.504Z,23.11
2018-07-26T00:35:02.912Z,23.13
2018-07-26T00:37:31.395Z,23.15
2018-07-26T00:39:59.851Z,23.10
2018-07-26T00:42:28.326Z,23.07
2018-07-26T00:44:56.750Z,23.00
2018-07-26T00:47:25.158Z,22.90
2018-07-26T00:49:53.544Z,22.77
2018-07-26T00:52:21.911Z,22.63
2018-07-26T00:54:50.304Z,22.58
2018-07-26T00:57:19.693Z,22.59
2018-07-26T00:59:48.083Z,22.56
2018-07-26T01:02:16.516Z,22.59
2018-07-26T01:04:44.875Z,22.57
2018-07-26T01:07:13.476Z,22.54
2018-07-26T01:09:41.894Z,22.46
2018-07-26T01:12:10.344Z,22.42
2018-07-26T01:14:38.920Z,22.34
2018-07-26T01:17:07.417Z,22.33
2018-07-26T01:19:36.078Z,22.36
2018-07-26T01:22:04.690Z,22.37
2018-07-26T01:24:33.163Z,22.37
2018-07-26T01:27:02.642Z,22.28
2018-07-26T01:29:31.088Z,22.13
2018-07-26T01:31:59.540Z,21.86
2018-07-26T01:34:28.006Z,21.79
2018-07-26T01:36:56.436Z,21.83
2018-07-26T01:39:24.848Z,21.92
2018-07-26T01:41:53.660Z,22.00
2018-07-26T01:44:23.737Z,22.01
2018-07-26T01:46:52.224Z,21.96
2018-07-26T01:49:20.687Z,21.87
2018-07-26T01:51:49.189Z,21.85
2018-07-26T01:54:17.732Z,21.84
2018-07-26T01:56:46.255Z,21.75
2018-07-26T01:59:14.730Z,21.73
2018-07-26T02:01:43.114Z,21.73
2018-07-26T02:04:11.531Z,21.70
2018-07-26T02:06:40.000Z,21.67
2018-07-26T02:09:09.997Z,21.59
2018-07-26T02:11:38.552Z,21.57
2018-07-26T02:14:11.160Z,21.57
2018-07-26T02:16:39.744Z,21.54
2018-07-26T02:19:08.348Z,21.50
2018-07-26T02:21:36.824Z,21.55
2018-07-26T02:24:05.280Z,21.57
2018-07-26T02:26:33.718Z,21.56
2018-07-26T02:29:02.120Z,21.54
2018-07-26T02:31:30.608Z,21.52
2018-07-26T02:33:59.063Z,21.50
2018-07-26T02:36:27.770Z,21.50
2018-07-26T02:38:56.144Z,21.48
2018-07-26T02:41:24.538Z,21.49
2018-07-26T02:43:52.980Z,21.48
2018-07-26T02:46:21.349Z,21.46
2018-07-26T02:48:49.842Z,21.43
2018-07-26T02:51:18.253Z,21.41
2018-07-26T02:53:46.917Z,21.37
2018-07-26T02:56:15.340Z,21.36
2018-07-26T02:58:43.735Z,21.32
2018-07-26T03:01:12.172Z,21.29
2018-07-26T03:03:40.764Z,21.28
2018-07-26T03:06:09.213Z,21.32
2018-07-26T03:08:37.677Z,21.37
2018-07-26T03:11:06.105Z,21.38
2018-07-26T03:13:34.664Z,21.35
2018-07-26T03:16:03.055Z,21.34
2018-07-26T03:18:31.487Z,21.35
2018-07-26T03:21:00.019Z,21.36
2018-07-26T03:23:28.370Z,21.37
2018-07-26T03:25:57.671Z,21.35
2018-07-26T03:28:26.143Z,21.37
2018-07-26T03:30:54.532Z,21.37
2018-07-26T03:33:22.943Z,21.39
2018-07-26T03:35:51.398Z,21.42
2018-07-26T03:38:19.813Z,21.43
2018-07-26T03:40:48.256Z,21.36
2018-07-26T03:43:16.696Z,21.22
2018-07-26T03:48:12.505Z,21.01
2018-07-26T03:50:40.994Z,20.99
2018-07-26T03:53:09.458Z,20.99
2018-07-26T03:55:37.872Z,21.00
2018-07-26T03:58:06.255Z,21.04
2018-07-26T04:00:34.760Z,21.07
2018-07-26T04:03:03.182Z,21.03
2018-07-26T04:05:31.640Z,21.04
2018-07-26T04:08:00.109Z,21.04
2018-07-26T04:10:28.588Z,21.05
2018-07-26T04:12:57.094Z,21.05
2018-07-26T04:15:25.535Z,21.08
2018-07-26T04:20:26.776Z,21.16
2018-07-26T04:22:55.256Z,21.20
2018-07-26T04:25:23.688Z,21.21
2018-07-26T04:27:52.198Z,21.24
2018-07-26T04:30:20.614Z,21.26
2018-07-26T04:32:49.010Z,21.29
2018-07-26T04:35:17.520Z,21.33
2018-07-26T04:37:45.981Z,21.35
2018-07-26T04:40:14.424Z,21.36
2018-07-26T04:42:42.916Z,21.34
2018-07-26T04:45:11.331Z,21.32
2018-07-26T04:47:39.789Z,21.31
2018-07-26T04:50:08.232Z,21.34
2018-07-26T04:52:36.673Z,21.35
2018-07-26T04:55:05.114Z,21.37
2018-07-26T04:57:33.503Z,21.39
2018-07-26T05:00:01.894Z,21.42
2018-07-26T05:02:30.312Z,21.43
2018-07-26T05:04:58.823Z,21.44
2018-07-26T05:07:27.216Z,21.47
2018-07-26T05:09:55.646Z,21.48
2018-07-26T05:12:24.046Z,21.47
2018-07-26T05:14:52.468Z,21.50
2018-07-26T05:17:20.928Z,21.48
2018-07-26T05:19:49.409Z,21.51
2018-07-26T05:22:17.848Z,21.46
2018-07-26T05:24:46.324Z,21.51
2018-07-26T05:27:14.802Z,21.52
2018-07-26T05:29:43.201Z,21.54
2018-07-26T05:32:11.597Z,21.55
2018-07-26T05:34:40.112Z,21.57
2018-07-26T05:37:08.583Z,21.52
2018-07-26T05:39:36.978Z,21.58
2018-07-26T05:42:05.465Z,21.58
2018-07-26T05:44:33.925Z,21.60
2018-07-26T05:47:02.340Z,21.61
2018-07-26T05:49:30.750Z,21.63
2018-07-26T05:51:59.184Z,21.65
2018-07-26T05:54:27.648Z,21.68
2018-07-26T05:56:56.044Z,21.70
2018-07-26T05:59:24.508Z,21.72
2018-07-26T06:01:53.073Z,21.73
2018-07-26T06:04:21.544Z,21.75
2018-07-26T06:06:50.009Z,21.76
2018-07-26T06:09:18.440Z,21.81
2018-07-26T06:11:46.900Z,21.86
2018-07-26T06:14:15.474Z,21.90
2018-07-26T06:16:44.647Z,21.93
2018-07-26T06:19:13.073Z,21.98
2018-07-26T06:21:41.529Z,22.02
2018-07-26T06:24:10.003Z,22.08
2018-07-26T06:26:39.064Z,22.13
2018-07-26T06:29:07.518Z,22.15
2018-07-26T06:31:36.373Z,22.20
2018-07-26T06:34:04.948Z,22.25
2018-07-26T06:36:33.412Z,22.32
2018-07-26T06:39:01.953Z,22.38
2018-07-26T06:41:30.419Z,22.45
2018-07-26T06:43:58.889Z,22.53
2018-07-26T06:46:27.356Z,22.62
2018-07-26T06:48:55.792Z,22.70
2018-07-26T06:51:24.282Z,22.77
2018-07-26T06:53:52.754Z,22.86
2018-07-26T06:56:22.144Z,22.92
2018-07-26T06:58:50.572Z,22.98
2018-07-26T07:01:19.013Z,23.04
2018-07-26T07:03:47.565Z,23.13
2018-07-26T07:06:16.586Z,23.22
2018-07-26T07:08:45.121Z,23.34
2018-07-26T07:11:13.755Z,23.42
2018-07-26T07:13:42.224Z,23.52
2018-07-26T07:16:10.813Z,23.58
2018-07-26T07:18:39.241Z,23.65
2018-07-26T07:21:08.861Z,23.82
2018-07-26T07:23:39.237Z,23.90
2018-07-26T07:26:07.731Z,23.98
2018-07-26T07:28:36.160Z,24.03
2018-07-26T07:31:04.685Z,24.00
2018-07-26T07:33:33.138Z,23.98
2018-07-26T07:36:01.655Z,24.07
2018-07-26T07:38:30.124Z,24.14
2018-07-26T07:40:58.559Z,24.25
2018-07-26T07:43:27.134Z,24.28
2018-07-26T07:45:55.611Z,24.20
2018-07-26T07:48:24.032Z,24.38
2018-07-26T07:50:52.454Z,24.51
2018-07-26T07:53:21.005Z,24.55
2018-07-26T07:55:49.521Z,24.54
2018-07-26T07:58:17.959Z,24.52
2018-07-26T08:00:46.399Z,24.61
2018-07-26T08:03:14.897Z,24.66
2018-07-26T08:05:43.375Z,24.68
2018-07-26T08:08:11.909Z,24.70
2018-07-26T08:10:40.325Z,24.61
2018-07-26T08:13:08.823Z,24.59
2018-07-26T08:15:37.286Z,24.49
2018-07-26T08:18:06.500Z,24.37
2018-07-26T08:20:34.960Z,24.31
2018-07-26T08:23:03.443Z,24.72
2018-07-26T08:25:31.866Z,24.84
2018-07-26T08:28:00.352Z,24.79
2018-07-26T08:30:28.921Z,24.68
2018-07-26T08:32:57.429Z,24.30
2018-07-26T08:35:25.862Z,24.54
2018-07-26T08:37:54.355Z,24.53
2018-07-26T08:40:23.379Z,24.48
2018-07-26T08:42:51.968Z,24.44
2018-07-26T08:45:20.548Z,24.47
2018-07-26T08:47:49.022Z,24.50
2018-07-26T08:50:17.487Z,24.53
2018-07-26T08:55:20.635Z,24.72
2018-07-26T08:57:49.074Z,24.73
2018-07-26T09:00:18.550Z,24.77
2018-07-26T09:02:47.814Z,24.85
2018-07-26T09:05:16.740Z,24.84
2018-07-26T09:07:45.813Z,24.94
2018-07-26T09:10:14.951Z,24.93
2018-07-26T09:12:43.393Z,24.94
2018-07-26T09:15:12.197Z,24.93
2018-07-26T09:17:40.624Z,25.01
2018-07-26T09:20:09.081Z,25.16
2018-07-26T09:22:37.469Z,25.23
2018-07-26T09:25:05.925Z,25.26
2018-07-26T09:27:34.357Z,25.29
2018-07-26T09:30:02.828Z,25.35
2018-07-26T09:32:31.261Z,25.63
2018-07-26T09:34:59.700Z,25.58
2018-07-26T09:37:28.142Z,25.52
2018-07-26T09:39:56.548Z,25.55
2018-07-26T09:42:25.039Z,25.44
2018-07-26T09:44:53.569Z,25.39
2018-07-26T09:47:22.011Z,25.46
2018-07-26T09:49:50.572Z,25.46
2018-07-26T09:52:19.014Z,25.37
2018-07-26T09:54:47.448Z,25.48
2018-07-26T09:57:15.886Z,25.52
2018-07-26T09:59:44.295Z,25.45
2018-07-26T10:02:12.808Z,25.50
2018-07-26T10:04:41.273Z,25.57
2018-07-26T10:07:09.741Z,25.53
2018-07-26T10:09:38.136Z,25.79
2018-07-26T10:12:06.584Z,25.86
2018-07-26T10:14:35.017Z,25.79
2018-07-26T10:17:03.417Z,25.75
2018-07-26T10:19:31.920Z,25.71
2018-07-26T10:22:00.344Z,25.72
2018-07-26T10:24:28.791Z,25.89
2018-07-26T10:26:57.210Z,26.06
2018-07-26T10:29:25.648Z,26.05
2018-07-26T10:31:54.151Z,26.19
2018-07-26T10:34:22.533Z,26.26
2018-07-26T10:36:51.085Z,26.22
2018-07-26T10:39:19.553Z,26.22
2018-07-26T10:41:48.027Z,26.24
2018-07-26T10:44:16.487Z,26.34
2018-07-26T10:46:44.878Z,26.44
2018-07-26T10:49:13.266Z,26.51
2018-07-26T10:51:41.714Z,26.44
2018-07-26T10:54:10.162Z,26.51
2018-07-26T10:56:38.652Z,26.88
2018-07-26T10:59:07.043Z,27.01
2018-07-26T11:01:35.769Z,27.14
2018-07-26T11:04:04.272Z,27.12
2018-07-26T11:06:32.753Z,27.09
2018-07-26T11:09:01.164Z,27.10
2018-07-26T11:11:29.550Z,27.04
2018-07-26T11:13:57.980Z,27.30
2018-07-26T11:16:26.455Z,27.39
2018-07-26T11:18:54.971Z,27.64
2018-07-26T11:21:23.368Z,27.87
2018-07-26T11:23:51.851Z,27.90
2018-07-26T11:26:20.303Z,27.99
2018-07-26T11:28:48.795Z,27.92
2018-07-26T11:31:17.275Z,27.86
2018-07-26T11:33:45.723Z,27.68
2018-07-26T11:36:14.366Z,27.57
2018-07-26T11:38:42.864Z,27.51
2018-07-26T11:41:11.344Z,27.56
2018-07-26T11:43:39.798Z,27.54
2018-07-26T11:46:08.282Z,27.52
2018-07-26T11:48:36.735Z,27.97
2018-07-26T11:51:05.216Z,28.10
2018-07-26T11:53:33.691Z,28.34
2018-07-26T11:56:02.132Z,28.32
2018-07-26T11:58:30.619Z,28.20
2018-07-26T12:00:59.035Z,28.15
2018-07-26T12:03:27.461Z,28.28
2018-07-26T12:05:56.607Z,28.64
2018-07-26T12:08:25.006Z,28.87
2018-07-26T12:10:53.464Z,29.48
2018-07-26T12:13:21.919Z,29.81
2018-07-26T12:15:50.307Z,29.98
2018-07-26T12:18:18.799Z,30.10
2018-07-26T12:20:47.260Z,30.22
2018-07-26T12:23:15.736Z,30.47
2018-07-26T12:25:44.221Z,30.75
2018-07-26T12:28:12.667Z,31.39
2018-07-26T12:30:41.607Z,31.29
2018-07-26T12:33:10.017Z,30.71
2018-07-26T12:35:38.453Z,30.27
2018-07-26T12:38:06.844Z,29.98
2018-07-26T12:40:35.335Z,29.72
2018-07-26T12:43:03.785Z,29.70
2018-07-26T12:45:32.347Z,29.76
2018-07-26T12:48:00.833Z,30.19
2018-07-26T12:50:29.270Z,30.42
2018-07-26T12:52:57.747Z,30.40
2018-07-26T12:55:26.205Z,30.09
2018-07-26T12:57:55.128Z,29.87
2018-07-26T13:00:23.572Z,30.20
2018-07-26T13:02:52.056Z,31.14
2018-07-26T13:05:20.505Z,31.57
2018-07-26T13:07:48.933Z,30.88
2018-07-26T13:10:17.351Z,30.31
2018-07-26T13:12:45.817Z,30.01
2018-07-26T13:15:14.284Z,29.79
2018-07-26T13:17:42.755Z,29.56
2018-07-26T13:20:11.205Z,29.36
2018-07-26T13:22:39.640Z,29.92
2018-07-26T13:25:08.118Z,30.51
2018-07-26T13:27:36.582Z,31.17
2018-07-26T13:30:05.689Z,30.73
2018-07-26T13:32:34.190Z,30.35
2018-07-26T13:35:02.657Z,30.00
2018-07-26T13:37:31.090Z,29.72
2018-07-26T13:39:59.717Z,29.55
2018-07-26T13:42:28.100Z,29.51
2018-07-26T13:44:56.534Z,29.48
2018-07-26T13:47:25.057Z,29.41
2018-07-26T13:49:53.581Z,29.67
2018-07-26T13:52:22.045Z,29.62
2018-07-26T13:54:50.425Z,29.54
2018-07-26T13:57:18.903Z,29.79
2018-07-26T13:59:47.335Z,30.59
2018-07-26T14:02:15.757Z,31.22
2018-07-26T14:04:44.163Z,31.61
2018-07-26T14:07:12.657Z,31.96
2018-07-26T14:09:41.096Z,32.25
2018-07-26T14:12:09.527Z,32.40
2018-07-26T14:14:37.959Z,32.44
2018-07-26T14:17:06.429Z,32.59
2018-07-26T14:19:34.866Z,32.66
2018-07-26T14:22:03.399Z,32.79
2018-07-26T14:24:31.935Z,33.13
2018-07-26T14:27:00.369Z,33.39
2018-07-26T14:29:28.872Z,33.44
2018-07-26T14:31:57.354Z,33.39
2018-07-26T14:34:25.977Z,32.81
2018-07-26T14:36:54.421Z,32.30
2018-07-26T14:39:23.080Z,31.87
2018-07-26T14:41:51.597Z,31.81
2018-07-26T14:44:20.016Z,31.46
2018-07-26T14:46:48.423Z,31.11
2018-07-26T14:49:16.833Z,31.02
2018-07-26T14:51:45.353Z,30.92
2018-07-26T14:54:13.757Z,30.78
2018-07-26T14:56:42.242Z,30.59
2018-07-26T14:59:10.727Z,30.39
2018-07-26T15:01:39.149Z,30.22
2018-07-26T15:04:08.360Z,30.06
2018-07-26T15:06:36.748Z,30.05
2018-07-26T15:09:08.080Z,30.37
2018-07-26T15:11:36.634Z,30.45
2018-07-26T15:14:05.074Z,30.31
2018-07-26T15:16:33.557Z,30.12
2018-07-26T15:19:02.086Z,29.94
2018-07-26T15:21:30.538Z,29.82
2018-07-26T15:23:59.002Z,29.93
2018-07-26T15:26:27.409Z,29.85
2018-07-26T15:28:55.828Z,29.68
2018-07-26T15:31:24.284Z,29.43
2018-07-26T15:33:52.736Z,29.12
2018-07-26T15:36:21.156Z,28.67
2018-07-26T15:38:49.653Z,28.24
2018-07-26T15:41:18.085Z,27.93
2018-07-26T15:43:46.552Z,27.58
2018-07-26T15:46:14.977Z,27.23
2018-07-26T15:48:43.355Z,26.76
2018-07-26T15:51:11.937Z,26.63
2018-07-26T15:53:40.496Z,26.59
2018-07-26T15:56:08.941Z,26.78
2018-07-26T15:58:37.488Z,26.79
2018-07-26T16:01:06.040Z,26.60
2018-07-26T16:03:34.730Z,26.50
2018-07-26T16:06:03.117Z,26.59
2018-07-26T16:08:31.558Z,26.78
2018-07-26T16:10:59.965Z,26.87
2018-07-26T16:13:28.430Z,26.95
2018-07-26T16:15:56.875Z,27.08
2018-07-26T16:18:25.293Z,27.16
2018-07-26T16:20:53.743Z,27.46
2018-07-26T16:23:22.145Z,27.58
2018-07-26T16:25:50.618Z,27.56
2018-07-26T16:28:19.071Z,27.54
2018-07-26T16:30:47.496Z,27.67
2018-07-26T16:33:16.000Z,27.75
2018-07-26T16:35:44.400Z,27.74
2018-07-26T16:38:12.881Z,27.67
2018-07-26T16:40:41.287Z,27.61
2018-07-26T16:43:09.812Z,27.53
2018-07-26T16:45:38.335Z,27.51
2018-07-26T16:48:06.799Z,27.46
2018-07-26T16:50:35.225Z,27.42
2018-07-26T16:53:03.783Z,27.40
2018-07-26T16:55:32.189Z,27.43
2018-07-26T16:58:00.660Z,27.43
2018-07-26T17:00:29.099Z,27.36
2018-07-26T17:02:57.531Z,27.34
2018-07-26T17:05:26.015Z,27.25
2018-07-26T17:07:54.567Z,27.13
2018-07-26T17:10:22.977Z,27.16
2018-07-26T17:12:51.433Z,27.21
2018-07-26T17:15:19.878Z,27.23
2018-07-26T17:17:50.069Z,27.20
2018-07-26T17:20:18.547Z,27.22
2018-07-26T17:22:47.070Z,27.10
2018-07-26T17:25:17.347Z,27.02
2018-07-26T17:27:45.844Z,27.02
2018-07-26T17:30:14.328Z,27.01
2018-07-26T17:32:42.765Z,27.03
2018-07-26T17:35:11.223Z,27.06
2018-07-26T17:37:39.651Z,27.09
2018-07-26T17:40:08.144Z,27.10
2018-07-26T17:42:36.650Z,27.08
2018-07-26T17:45:07.630Z,27.09
2018-07-26T17:47:36.104Z,27.09
2018-07-26T17:50:05.594Z,27.09
2018-07-26T17:52:34.419Z,27.09
2018-07-26T17:55:03.192Z,27.08
2018-07-26T17:57:31.627Z,27.08
2018-07-26T18:00:00.079Z,27.06
2018-07-26T18:02:28.559Z,26.99
2018-07-26T18:04:57.028Z,26.98
2018-07-26T18:07:25.460Z,26.93
2018-07-26T18:09:53.930Z,26.90
2018-07-26T18:12:22.373Z,26.79
2018-07-26T18:14:50.793Z,26.65
2018-07-26T18:17:19.247Z,26.58
2018-07-26T18:19:47.694Z,26.55
2018-07-26T18:22:16.139Z,26.62
2018-07-26T18:24:44.561Z,26.68
2018-07-26T18:27:12.986Z,26.73
2018-07-26T18:29:41.419Z,26.74
2018-07-26T18:32:09.914Z,26.74
2018-07-26T18:34:38.352Z,26.74
2018-07-26T18:37:06.895Z,26.72
2018-07-26T18:39:35.400Z,26.64
2018-07-26T18:42:03.861Z,26.55
2018-07-26T18:44:32.233Z,26.43
2018-07-26T18:47:00.660Z,26.39
2018-07-26T18:49:29.160Z,26.40
2018-07-26T18:51:57.541Z,26.37
2018-07-26T18:54:25.965Z,26.29
2018-07-26T18:56:54.469Z,26.31
2018-07-26T18:59:23.617Z,26.33
2018-07-26T19:01:52.041Z,26.36
2018-07-26T19:04:20.516Z,26.40
2018-07-26T19:06:49.001Z,26.41
2018-07-26T19:09:17.478Z,26.41
2018-07-26T19:11:45.962Z,26.43
2018-07-26T19:14:14.416Z,26.42
2018-07-26T19:16:42.924Z,26.41
2018-07-26T19:19:11.394Z,26.36
2018-07-26T19:21:39.868Z,26.32
2018-07-26T19:24:08.377Z,26.24
2018-07-26T19:26:36.792Z,26.23
2018-07-26T19:29:05.672Z,26.22
2018-07-26T19:31:34.207Z,26.19
2018-07-26T19:34:02.596Z,26.15
2018-07-26T19:36:31.104Z,26.14
2018-07-26T19:38:59.642Z,26.13
2018-07-26T19:41:29.024Z,26.16
2018-07-26T19:43:57.502Z,26.17
2018-07-26T19:46:26.016Z,26.18
2018-07-26T19:48:54.433Z,26.13
2018-07-26T19:51:22.906Z,26.09
2018-07-26T19:53:51.381Z,26.06
2018-07-26T19:56:19.802Z,26.02
2018-07-26T19:58:48.221Z,25.99
2018-07-26T20:01:16.683Z,25.87
2018-07-26T20:03:45.704Z,25.70
2018-07-26T20:06:14.083Z,25.50
2018-07-26T20:08:42.483Z,25.50
2018-07-26T20:11:11.007Z,25.54
2018-07-26T20:13:39.405Z,25.53
2018-07-26T20:16:07.909Z,25.49
2018-07-26T20:18:36.472Z,25.40
2018-07-26T20:21:04.900Z,25.32
2018-07-26T20:23:33.377Z,25.27
2018-07-26T20:26:01.853Z,25.27
2018-07-26T20:28:30.309Z,25.26
2018-07-26T20:30:58.733Z,25.24
2018-07-26T20:33:27.174Z,25.23
2018-07-26T20:35:55.588Z,25.22
2018-07-26T20:38:23.981Z,25.19
2018-07-26T20:40:52.400Z,25.19
2018-07-26T20:43:20.856Z,25.16
2018-07-26T20:45:49.329Z,25.15
2018-07-26T20:48:17.780Z,25.13
2018-07-26T20:50:46.239Z,25.13
2018-07-26T20:53:14.646Z,25.10
2018-07-26T20:55:43.064Z,25.08
2018-07-26T20:58:12.156Z,25.06
2018-07-26T21:00:42.321Z,25.02
2018-07-26T21:03:13.829Z,25.00
2018-07-26T21:05:42.734Z,24.98
2018-07-26T21:08:12.688Z,24.97
2018-07-26T21:10:41.397Z,24.98
2018-07-26T21:13:10.933Z,24.99
2018-07-26T21:15:41.531Z,24.99
2018-07-26T21:18:10.441Z,24.98
2018-07-26T21:20:40.408Z,24.96
2018-07-26T21:23:09.694Z,24.96
2018-07-26T21:25:38.967Z,24.94
2018-07-26T21:28:07.982Z,24.93
2018-07-26T21:30:36.784Z,24.91
2018-07-26T21:33:06.989Z,24.90
2018-07-26T21:35:35.516Z,24.89
2018-07-26T21:38:03.930Z,24.87
2018-07-26T21:40:32.357Z,24.83
2018-07-26T21:43:01.742Z,24.82
2018-07-26T21:45:30.155Z,24.82
2018-07-26T21:47:58.586Z,24.78
2018-07-26T21:50:26.980Z,24.76
2018-07-26T21:52:55.414Z,24.74
2018-07-26T21:55:24.246Z,24.72
2018-07-26T21:57:52.652Z,24.68
2018-07-26T22:00:21.036Z,24.67
2018-07-26T22:02:49.497Z,24.64
2018-07-26T22:05:17.948Z,24.59
2018-07-26T22:07:46.369Z,24.58
2018-07-26T22:10:14.876Z,24.54
2018-07-26T22:12:44.183Z,24.51
2018-07-26T22:15:13.508Z,24.49
2018-07-26T22:17:41.872Z,24.43
2018-07-26T22:20:10.402Z,24.40
2018-07-26T22:22:38.781Z,24.36
2018-07-26T22:25:07.238Z,24.32
2018-07-26T22:27:35.617Z,24.30
2018-07-26T22:30:04.420Z,24.26
2018-07-26T22:32:32.948Z,24.24
2018-07-26T22:35:01.290Z,24.22
2018-07-26T22:37:29.722Z,24.19
2018-07-26T22:39:58.131Z,24.18
2018-07-26T22:42:26.575Z,24.18
2018-07-26T22:44:55.049Z,24.21
2018-07-26T22:47:23.479Z,24.21
2018-07-26T22:49:51.940Z,24.22
2018-07-26T22:52:20.374Z,24.22
2018-07-26T22:54:48.776Z,24.21
2018-07-26T22:57:17.228Z,23.93
2018-07-26T22:59:45.653Z,24.22
2018-07-26T23:02:14.190Z,24.23
2018-07-26T23:04:42.601Z,24.23
2018-07-26T23:07:11.064Z,24.19
2018-07-26T23:09:39.479Z,24.20
2018-07-26T23:12:07.907Z,24.21
2018-07-26T23:14:36.293Z,24.16
2018-07-26T23:17:04.723Z,24.17
2018-07-26T23:19:33.152Z,24.17
2018-07-26T23:22:01.640Z,24.16
2018-07-26T23:24:30.065Z,24.14
2018-07-26T23:26:58.403Z,24.16
2018-07-26T23:29:26.842Z,24.12
2018-07-26T23:31:55.259Z,24.12
2018-07-26T23:34:23.710Z,24.10
2018-07-26T23:36:52.104Z,24.08
2018-07-26T23:39:20.572Z,24.05
2018-07-26T23:41:49.035Z,24.05
2018-07-26T23:44:17.505Z,24.02
2018-07-26T23:46:45.900Z,24.00
2018-07-26T23:49:14.292Z,23.98
2018-07-26T23:51:42.688Z,23.99
2018-07-26T23:54:11.112Z,23.99
2018-07-26T23:56:39.519Z,23.97
2018-07-26T23:59:07.895Z,23.97
